sensor_id;sensor_type;location;lat;lon;timestamp;P1;durP1;ratioP1;P2;durP2;ratioP2
16928;SDS011;8581;47.334;11.190;2023-03-01T00:01:23;31.97;;;27.97;;
16928;SDS011;8581;47.334;11.190;2023-03-01T00:03:53;34.33;;;29.83;;
16928;SDS011;8581;47.334;11.190;2023-03-01T00:06:25;33.37;;;29.80;;
16928;SDS011;8581;47.334;11.190;2023-03-01T00:08:56;31.77;;;28.43;;
16928;SDS011;8581;47.334;11.190;2023-03-01T00:11:29;33.87;;;29.77;;
16928;SDS011;8581;47.334;11.190;2023-03-01T00:14:00;35.30;;;31.30;;
16928;SDS011;8581;47.334;11.190;2023-03-01T00:16:34;32.93;;;29.33;;
16928;SDS011;8581;47.334;11.190;2023-03-01T00:19:04;32.10;;;28.70;;
16928;SDS011;8581;47.334;11.190;2023-03-01T00:21:35;33.10;;;29.30;;
16928;SDS011;8581;47.334;11.190;2023-03-01T00:24:07;34.53;;;29.53;;
16928;SDS011;8581;47.334;11.190;2023-03-01T00:26:39;34.80;;;30.87;;
16928;SDS011;8581;47.334;11.190;2023-03-01T00:29:10;33.10;;;29.50;;
16928;SDS011;8581;47.334;11.190;2023-03-01T00:31:42;31.53;;;28.23;;
16928;SDS011;8581;47.334;11.190;2023-03-01T00:34:13;29.90;;;26.80;;
16928;SDS011;8581;47.334;11.190;2023-03-01T00:36:45;32.03;;;28.63;;
16928;SDS011;8581;47.334;11.190;2023-03-01T00:39:17;30.17;;;26.97;;
16928;SDS011;8581;47.334;11.190;2023-03-01T00:41:48;30.87;;;27.53;;
16928;SDS011;8581;47.334;11.190;2023-03-01T00:44:20;30.37;;;27.17;;
16928;SDS011;8581;47.334;11.190;2023-03-01T00:46:51;28.80;;;25.80;;
16928;SDS011;8581;47.334;11.190;2023-03-01T00:49:23;29.20;;;26.07;;
16928;SDS011;8581;47.334;11.190;2023-03-01T00:51:55;28.97;;;26.03;;
16928;SDS011;8581;47.334;11.190;2023-03-01T00:54:26;28.50;;;25.57;;
16928;SDS011;8581;47.334;11.190;2023-03-01T00:56:58;28.33;;;25.37;;
16928;SDS011;8581;47.334;11.190;2023-03-01T00:59:29;29.97;;;26.77;;
16928;SDS011;8581;47.334;11.190;2023-03-01T01:02:01;29.20;;;26.17;;
16928;SDS011;8581;47.334;11.190;2023-03-01T01:04:33;31.47;;;28.10;;
16928;SDS011;8581;47.334;11.190;2023-03-01T01:07:04;28.83;;;25.90;;
16928;SDS011;8581;47.334;11.190;2023-03-01T01:09:36;29.03;;;26.00;;
16928;SDS011;8581;47.334;11.190;2023-03-01T01:12:07;31.43;;;28.03;;
16928;SDS011;8581;47.334;11.190;2023-03-01T01:14:39;27.87;;;24.90;;
16928;SDS011;8581;47.334;11.190;2023-03-01T01:17:11;28.10;;;25.23;;
16928;SDS011;8581;47.334;11.190;2023-03-01T01:19:42;29.03;;;25.97;;
16928;SDS011;8581;47.334;11.190;2023-03-01T01:22:14;29.20;;;26.13;;
16928;SDS011;8581;47.334;11.190;2023-03-01T01:24:46;26.63;;;23.93;;
16928;SDS011;8581;47.334;11.190;2023-03-01T01:27:17;26.93;;;24.07;;
16928;SDS011;8581;47.334;11.190;2023-03-01T01:29:49;25.60;;;23.00;;
16928;SDS011;8581;47.334;11.190;2023-03-01T01:32:20;28.47;;;25.47;;
16928;SDS011;8581;47.334;11.190;2023-03-01T01:34:52;28.27;;;25.33;;
16928;SDS011;8581;47.334;11.190;2023-03-01T01:37:23;25.33;;;22.20;;
16928;SDS011;8581;47.334;11.190;2023-03-01T01:39:55;27.00;;;24.30;;
16928;SDS011;8581;47.334;11.190;2023-03-01T01:42:27;26.57;;;23.77;;
16928;SDS011;8581;47.334;11.190;2023-03-01T01:47:41;23.50;;;21.03;;
16928;SDS011;8581;47.334;11.190;2023-03-01T01:50:14;22.47;;;20.20;;
16928;SDS011;8581;47.334;11.190;2023-03-01T01:52:45;21.33;;;19.33;;
16928;SDS011;8581;47.334;11.190;2023-03-01T01:55:18;17.73;;;16.13;;
16928;SDS011;8581;47.334;11.190;2023-03-01T01:57:51;16.73;;;15.20;;
16928;SDS011;8581;47.334;11.190;2023-03-01T02:00:23;16.80;;;15.30;;
16928;SDS011;8581;47.334;11.190;2023-03-01T02:02:56;16.60;;;15.00;;
16928;SDS011;8581;47.334;11.190;2023-03-01T02:08:12;17.50;;;15.30;;
16928;SDS011;8581;47.334;11.190;2023-03-01T02:10:43;17.37;;;15.70;;
16928;SDS011;8581;47.334;11.190;2023-03-01T02:13:14;18.13;;;16.43;;
16928;SDS011;8581;47.334;11.190;2023-03-01T02:15:46;17.90;;;16.10;;
16928;SDS011;8581;47.334;11.190;2023-03-01T02:18:18;17.57;;;15.77;;
16928;SDS011;8581;47.334;11.190;2023-03-01T02:21:01;17.70;;;15.87;;
16928;SDS011;8581;47.334;11.190;2023-03-01T02:23:32;17.37;;;15.63;;
16928;SDS011;8581;47.334;11.190;2023-03-01T02:26:07;18.47;;;16.67;;
16928;SDS011;8581;47.334;11.190;2023-03-01T02:28:38;17.97;;;16.17;;
16928;SDS011;8581;47.334;11.190;2023-03-01T02:31:10;17.97;;;16.27;;
16928;SDS011;8581;47.334;11.190;2023-03-01T02:33:47;17.00;;;15.40;;
16928;SDS011;8581;47.334;11.190;2023-03-01T02:36:20;16.50;;;15.00;;
16928;SDS011;8581;47.334;11.190;2023-03-01T02:38:51;15.53;;;14.00;;
16928;SDS011;8581;47.334;11.190;2023-03-01T02:41:23;15.83;;;14.37;;
16928;SDS011;8581;47.334;11.190;2023-03-01T02:43:54;16.83;;;15.23;;
16928;SDS011;8581;47.334;11.190;2023-03-01T02:46:26;16.77;;;14.40;;
16928;SDS011;8581;47.334;11.190;2023-03-01T02:48:58;15.63;;;14.03;;
16928;SDS011;8581;47.334;11.190;2023-03-01T02:51:39;16.10;;;14.43;;
16928;SDS011;8581;47.334;11.190;2023-03-01T02:54:23;15.07;;;13.67;;
16928;SDS011;8581;47.334;11.190;2023-03-01T02:56:53;17.10;;;15.40;;
16928;SDS011;8581;47.334;11.190;2023-03-01T02:59:26;16.60;;;15.03;;
16928;SDS011;8581;47.334;11.190;2023-03-01T03:01:56;16.93;;;15.33;;
16928;SDS011;8581;47.334;11.190;2023-03-01T03:04:27;16.67;;;14.93;;
16928;SDS011;8581;47.334;11.190;2023-03-01T03:06:59;17.37;;;15.60;;
16928;SDS011;8581;47.334;11.190;2023-03-01T03:09:31;16.87;;;15.17;;
16928;SDS011;8581;47.334;11.190;2023-03-01T03:12:03;17.03;;;15.23;;
16928;SDS011;8581;47.334;11.190;2023-03-01T03:14:35;17.47;;;15.67;;
16928;SDS011;8581;47.334;11.190;2023-03-01T03:17:06;17.27;;;15.47;;
16928;SDS011;8581;47.334;11.190;2023-03-01T03:19:38;16.20;;;14.73;;
16928;SDS011;8581;47.334;11.190;2023-03-01T03:22:13;16.03;;;14.53;;
16928;SDS011;8581;47.334;11.190;2023-03-01T03:24:45;16.00;;;14.40;;
16928;SDS011;8581;47.334;11.190;2023-03-01T03:27:20;15.97;;;14.37;;
16928;SDS011;8581;47.334;11.190;2023-03-01T03:29:52;16.40;;;14.80;;
16928;SDS011;8581;47.334;11.190;2023-03-01T03:32:23;16.47;;;14.97;;
16928;SDS011;8581;47.334;11.190;2023-03-01T03:34:55;17.23;;;15.63;;
16928;SDS011;8581;47.334;11.190;2023-03-01T03:37:26;15.83;;;14.30;;
16928;SDS011;8581;47.334;11.190;2023-03-01T03:40:04;16.50;;;14.90;;
16928;SDS011;8581;47.334;11.190;2023-03-01T03:42:36;15.07;;;13.53;;
16928;SDS011;8581;47.334;11.190;2023-03-01T03:45:08;16.87;;;15.27;;
16928;SDS011;8581;47.334;11.190;2023-03-01T03:47:40;16.27;;;14.67;;
16928;SDS011;8581;47.334;11.190;2023-03-01T03:50:12;16.20;;;14.70;;
16928;SDS011;8581;47.334;11.190;2023-03-01T03:52:43;16.83;;;15.17;;
16928;SDS011;8581;47.334;11.190;2023-03-01T03:55:15;16.67;;;15.07;;
16928;SDS011;8581;47.334;11.190;2023-03-01T03:57:47;15.17;;;13.73;;
16928;SDS011;8581;47.334;11.190;2023-03-01T04:00:21;15.10;;;13.70;;
16928;SDS011;8581;47.334;11.190;2023-03-01T04:02:53;15.87;;;14.37;;
16928;SDS011;8581;47.334;11.190;2023-03-01T04:05:25;15.10;;;13.70;;
16928;SDS011;8581;47.334;11.190;2023-03-01T04:07:57;15.13;;;13.73;;
16928;SDS011;8581;47.334;11.190;2023-03-01T04:10:33;15.57;;;14.00;;
16928;SDS011;8581;47.334;11.190;2023-03-01T04:13:04;14.30;;;13.00;;
16928;SDS011;8581;47.334;11.190;2023-03-01T04:15:36;15.17;;;13.67;;
16928;SDS011;8581;47.334;11.190;2023-03-01T04:18:14;16.60;;;14.83;;
16928;SDS011;8581;47.334;11.190;2023-03-01T04:20:39;16.37;;;14.80;;
16928;SDS011;8581;47.334;11.190;2023-03-01T04:23:12;16.30;;;14.70;;
16928;SDS011;8581;47.334;11.190;2023-03-01T04:25:46;16.77;;;15.07;;
16928;SDS011;8581;47.334;11.190;2023-03-01T04:28:17;16.83;;;15.23;;
16928;SDS011;8581;47.334;11.190;2023-03-01T04:30:48;15.13;;;13.73;;
16928;SDS011;8581;47.334;11.190;2023-03-01T04:33:20;16.23;;;14.63;;
16928;SDS011;8581;47.334;11.190;2023-03-01T04:35:52;15.37;;;13.90;;
16928;SDS011;8581;47.334;11.190;2023-03-01T04:38:23;15.80;;;14.30;;
16928;SDS011;8581;47.334;11.190;2023-03-01T04:40:55;14.67;;;13.33;;
16928;SDS011;8581;47.334;11.190;2023-03-01T04:43:26;14.97;;;13.57;;
16928;SDS011;8581;47.334;11.190;2023-03-01T04:46:00;15.97;;;14.37;;
16928;SDS011;8581;47.334;11.190;2023-03-01T04:48:32;14.50;;;13.20;;
16928;SDS011;8581;47.334;11.190;2023-03-01T04:51:04;14.80;;;13.50;;
16928;SDS011;8581;47.334;11.190;2023-03-01T04:53:36;15.00;;;13.60;;
16928;SDS011;8581;47.334;11.190;2023-03-01T04:56:07;15.53;;;14.13;;
16928;SDS011;8581;47.334;11.190;2023-03-01T04:58:39;16.57;;;15.07;;
16928;SDS011;8581;47.334;11.190;2023-03-01T05:01:11;16.97;;;15.30;;
16928;SDS011;8581;47.334;11.190;2023-03-01T05:03:43;25.47;;;17.27;;
16928;SDS011;8581;47.334;11.190;2023-03-01T05:06:15;15.77;;;14.17;;
16928;SDS011;8581;47.334;11.190;2023-03-01T05:08:46;14.73;;;13.43;;
16928;SDS011;8581;47.334;11.190;2023-03-01T05:11:18;16.20;;;14.70;;
16928;SDS011;8581;47.334;11.190;2023-03-01T05:13:49;17.13;;;15.43;;
16928;SDS011;8581;47.334;11.190;2023-03-01T05:16:21;15.27;;;13.83;;
16928;SDS011;8581;47.334;11.190;2023-03-01T05:18:53;15.80;;;14.03;;
16928;SDS011;8581;47.334;11.190;2023-03-01T05:21:24;16.10;;;14.60;;
16928;SDS011;8581;47.334;11.190;2023-03-01T05:23:56;15.53;;;14.03;;
16928;SDS011;8581;47.334;11.190;2023-03-01T05:26:27;17.90;;;15.93;;
16928;SDS011;8581;47.334;11.190;2023-03-01T05:28:59;16.47;;;14.87;;
16928;SDS011;8581;47.334;11.190;2023-03-01T05:31:31;16.57;;;15.00;;
16928;SDS011;8581;47.334;11.190;2023-03-01T05:34:02;17.07;;;15.30;;
16928;SDS011;8581;47.334;11.190;2023-03-01T05:36:34;15.57;;;13.97;;
16928;SDS011;8581;47.334;11.190;2023-03-01T05:39:06;15.70;;;14.10;;
16928;SDS011;8581;47.334;11.190;2023-03-01T05:41:37;18.30;;;16.50;;
16928;SDS011;8581;47.334;11.190;2023-03-01T05:44:09;16.83;;;15.13;;
16928;SDS011;8581;47.334;11.190;2023-03-01T05:46:40;17.53;;;15.83;;
16928;SDS011;8581;47.334;11.190;2023-03-01T05:49:12;16.87;;;13.70;;
16928;SDS011;8581;47.334;11.190;2023-03-01T05:51:48;15.77;;;14.27;;
16928;SDS011;8581;47.334;11.190;2023-03-01T05:54:19;17.30;;;15.60;;
16928;SDS011;8581;47.334;11.190;2023-03-01T05:56:50;15.77;;;14.13;;
16928;SDS011;8581;47.334;11.190;2023-03-01T05:59:22;15.00;;;13.50;;
16928;SDS011;8581;47.334;11.190;2023-03-01T06:01:54;15.67;;;14.27;;
16928;SDS011;8581;47.334;11.190;2023-03-01T06:04:25;15.07;;;13.70;;
16928;SDS011;8581;47.334;11.190;2023-03-01T06:06:57;17.80;;;16.00;;
16928;SDS011;8581;47.334;11.190;2023-03-01T06:09:28;16.90;;;15.17;;
16928;SDS011;8581;47.334;11.190;2023-03-01T06:12:00;14.57;;;13.17;;
16928;SDS011;8581;47.334;11.190;2023-03-01T06:14:32;16.80;;;14.97;;
16928;SDS011;8581;47.334;11.190;2023-03-01T06:17:04;15.10;;;13.57;;
16928;SDS011;8581;47.334;11.190;2023-03-01T06:19:35;15.90;;;14.30;;
16928;SDS011;8581;47.334;11.190;2023-03-01T06:22:07;15.03;;;13.63;;
16928;SDS011;8581;47.334;11.190;2023-03-01T06:24:38;15.60;;;14.00;;
16928;SDS011;8581;47.334;11.190;2023-03-01T06:27:10;15.07;;;13.63;;
16928;SDS011;8581;47.334;11.190;2023-03-01T06:29:42;15.07;;;13.57;;
16928;SDS011;8581;47.334;11.190;2023-03-01T06:32:13;16.10;;;14.50;;
16928;SDS011;8581;47.334;11.190;2023-03-01T06:34:45;13.73;;;12.43;;
16928;SDS011;8581;47.334;11.190;2023-03-01T06:37:16;15.37;;;13.80;;
16928;SDS011;8581;47.334;11.190;2023-03-01T06:39:48;15.97;;;14.37;;
16928;SDS011;8581;47.334;11.190;2023-03-01T06:42:19;15.43;;;13.93;;
16928;SDS011;8581;47.334;11.190;2023-03-01T06:44:51;16.23;;;14.63;;
16928;SDS011;8581;47.334;11.190;2023-03-01T06:47:23;16.33;;;14.77;;
16928;SDS011;8581;47.334;11.190;2023-03-01T06:49:54;16.70;;;14.97;;
16928;SDS011;8581;47.334;11.190;2023-03-01T06:52:26;16.83;;;15.03;;
16928;SDS011;8581;47.334;11.190;2023-03-01T06:54:58;17.33;;;15.70;;
16928;SDS011;8581;47.334;11.190;2023-03-01T06:57:29;17.23;;;15.30;;
16928;SDS011;8581;47.334;11.190;2023-03-01T07:00:01;17.17;;;15.47;;
16928;SDS011;8581;47.334;11.190;2023-03-01T07:02:32;16.53;;;14.90;;
16928;SDS011;8581;47.334;11.190;2023-03-01T07:05:04;16.00;;;14.53;;
16928;SDS011;8581;47.334;11.190;2023-03-01T07:07:36;15.20;;;13.80;;
16928;SDS011;8581;47.334;11.190;2023-03-01T07:10:08;14.33;;;13.00;;
16928;SDS011;8581;47.334;11.190;2023-03-01T07:12:41;15.37;;;13.90;;
16928;SDS011;8581;47.334;11.190;2023-03-01T07:15:12;16.37;;;14.77;;
16928;SDS011;8581;47.334;11.190;2023-03-01T07:17:44;15.30;;;13.80;;
16928;SDS011;8581;47.334;11.190;2023-03-01T07:20:17;13.57;;;12.37;;
16928;SDS011;8581;47.334;11.190;2023-03-01T07:22:55;13.73;;;12.43;;
16928;SDS011;8581;47.334;11.190;2023-03-01T07:25:27;15.30;;;13.67;;
16928;SDS011;8581;47.334;11.190;2023-03-01T07:28:05;14.30;;;12.90;;
16928;SDS011;8581;47.334;11.190;2023-03-01T07:30:41;13.27;;;11.93;;
16928;SDS011;8581;47.334;11.190;2023-03-01T07:33:17;13.63;;;12.33;;
16928;SDS011;8581;47.334;11.190;2023-03-01T07:35:56;32.63;;;28.10;;
16928;SDS011;8581;47.334;11.190;2023-03-01T07:38:27;22.03;;;19.67;;
16928;SDS011;8581;47.334;11.190;2023-03-01T07:40:59;14.30;;;13.00;;
16928;SDS011;8581;47.334;11.190;2023-03-01T07:43:30;13.60;;;12.30;;
16928;SDS011;8581;47.334;11.190;2023-03-01T07:46:09;15.07;;;13.53;;
16928;SDS011;8581;47.334;11.190;2023-03-01T07:48:41;13.50;;;12.20;;
16928;SDS011;8581;47.334;11.190;2023-03-01T07:51:13;13.73;;;12.43;;
16928;SDS011;8581;47.334;11.190;2023-03-01T07:53:46;13.60;;;12.40;;
16928;SDS011;8581;47.334;11.190;2023-03-01T07:56:22;12.03;;;10.97;;
16928;SDS011;8581;47.334;11.190;2023-03-01T07:58:55;12.57;;;11.47;;
16928;SDS011;8581;47.334;11.190;2023-03-01T08:01:32;12.33;;;11.10;;
16928;SDS011;8581;47.334;11.190;2023-03-01T08:04:04;11.63;;;10.53;;
16928;SDS011;8581;47.334;11.190;2023-03-01T08:06:40;11.27;;;10.27;;
16928;SDS011;8581;47.334;11.190;2023-03-01T08:09:13;12.70;;;11.50;;
16928;SDS011;8581;47.334;11.190;2023-03-01T08:11:51;12.33;;;11.13;;
16928;SDS011;8581;47.334;11.190;2023-03-01T08:14:22;13.23;;;11.93;;
16928;SDS011;8581;47.334;11.190;2023-03-01T08:16:54;11.93;;;10.73;;
16928;SDS011;8581;47.334;11.190;2023-03-01T08:19:26;11.83;;;10.60;;
16928;SDS011;8581;47.334;11.190;2023-03-01T08:21:57;12.80;;;11.60;;
16928;SDS011;8581;47.334;11.190;2023-03-01T08:24:29;10.50;;;9.50;;
16928;SDS011;8581;47.334;11.190;2023-03-01T08:27:03;12.57;;;11.17;;
16928;SDS011;8581;47.334;11.190;2023-03-01T08:29:35;12.63;;;11.43;;
16928;SDS011;8581;47.334;11.190;2023-03-01T08:32:10;12.20;;;11.10;;
16928;SDS011;8581;47.334;11.190;2023-03-01T08:34:49;11.17;;;10.17;;
16928;SDS011;8581;47.334;11.190;2023-03-01T08:37:34;11.27;;;10.27;;
16928;SDS011;8581;47.334;11.190;2023-03-01T08:40:09;12.47;;;11.27;;
16928;SDS011;8581;47.334;11.190;2023-03-01T08:42:42;13.40;;;11.30;;
16928;SDS011;8581;47.334;11.190;2023-03-01T08:45:13;11.40;;;10.23;;
16928;SDS011;8581;47.334;11.190;2023-03-01T08:47:45;14.03;;;11.40;;
16928;SDS011;8581;47.334;11.190;2023-03-01T08:50:17;12.60;;;11.37;;
16928;SDS011;8581;47.334;11.190;2023-03-01T08:52:49;13.40;;;11.90;;
16928;SDS011;8581;47.334;11.190;2023-03-01T08:55:21;12.50;;;11.23;;
16928;SDS011;8581;47.334;11.190;2023-03-01T08:57:52;12.90;;;11.53;;
16928;SDS011;8581;47.334;11.190;2023-03-01T09:00:24;13.27;;;12.00;;
16928;SDS011;8581;47.334;11.190;2023-03-01T09:02:56;13.37;;;11.67;;
16928;SDS011;8581;47.334;11.190;2023-03-01T09:05:27;11.83;;;10.63;;
16928;SDS011;8581;47.334;11.190;2023-03-01T09:08:00;13.67;;;11.23;;
16928;SDS011;8581;47.334;11.190;2023-03-01T09:10:39;12.13;;;10.93;;
16928;SDS011;8581;47.334;11.190;2023-03-01T09:13:10;12.43;;;11.13;;
16928;SDS011;8581;47.334;11.190;2023-03-01T09:15:43;13.37;;;11.93;;
16928;SDS011;8581;47.334;11.190;2023-03-01T09:18:14;17.37;;;14.47;;
16928;SDS011;8581;47.334;11.190;2023-03-01T09:20:46;11.90;;;10.10;;
16928;SDS011;8581;47.334;11.190;2023-03-01T09:23:17;10.93;;;8.77;;
16928;SDS011;8581;47.334;11.190;2023-03-01T09:25:49;10.37;;;9.37;;
16928;SDS011;8581;47.334;11.190;2023-03-01T09:28:21;10.30;;;8.90;;
16928;SDS011;8581;47.334;11.190;2023-03-01T09:31:02;10.30;;;9.10;;
16928;SDS011;8581;47.334;11.190;2023-03-01T09:33:37;10.17;;;9.27;;
16928;SDS011;8581;47.334;11.190;2023-03-01T09:36:12;11.10;;;9.00;;
16928;SDS011;8581;47.334;11.190;2023-03-01T09:38:43;11.70;;;9.77;;
16928;SDS011;8581;47.334;11.190;2023-03-01T09:44:09;10.33;;;9.23;;
16928;SDS011;8581;47.334;11.190;2023-03-01T09:46:38;12.77;;;10.10;;
16928;SDS011;8581;47.334;11.190;2023-03-01T09:49:10;9.73;;;8.73;;
16928;SDS011;8581;47.334;11.190;2023-03-01T09:51:46;11.93;;;9.60;;
16928;SDS011;8581;47.334;11.190;2023-03-01T09:54:15;12.13;;;9.43;;
16928;SDS011;8581;47.334;11.190;2023-03-01T09:56:51;10.00;;;9.10;;
16928;SDS011;8581;47.334;11.190;2023-03-01T09:59:25;9.93;;;8.93;;
16928;SDS011;8581;47.334;11.190;2023-03-01T10:01:59;8.90;;;8.10;;
16928;SDS011;8581;47.334;11.190;2023-03-01T10:07:48;9.40;;;8.50;;
16928;SDS011;8581;47.334;11.190;2023-03-01T10:10:06;20.30;;;9.37;;
16928;SDS011;8581;47.334;11.190;2023-03-01T10:12:39;9.43;;;8.53;;
16928;SDS011;8581;47.334;11.190;2023-03-01T10:15:12;12.07;;;8.97;;
16928;SDS011;8581;47.334;11.190;2023-03-01T10:18:02;9.10;;;8.27;;
16928;SDS011;8581;47.334;11.190;2023-03-01T10:20:46;8.70;;;7.73;;
16928;SDS011;8581;47.334;11.190;2023-03-01T10:23:19;8.23;;;7.43;;
16928;SDS011;8581;47.334;11.190;2023-03-01T10:25:56;8.23;;;7.30;;
16928;SDS011;8581;47.334;11.190;2023-03-01T10:31:26;10.20;;;7.80;;
16928;SDS011;8581;47.334;11.190;2023-03-01T10:33:57;7.90;;;7.20;;
16928;SDS011;8581;47.334;11.190;2023-03-01T10:36:28;8.33;;;7.53;;
16928;SDS011;8581;47.334;11.190;2023-03-01T10:39:00;8.13;;;7.37;;
16928;SDS011;8581;47.334;11.190;2023-03-01T10:41:32;11.47;;;6.87;;
16928;SDS011;8581;47.334;11.190;2023-03-01T10:44:03;7.53;;;6.80;;
16928;SDS011;8581;47.334;11.190;2023-03-01T10:46:35;8.00;;;6.50;;
16928;SDS011;8581;47.334;11.190;2023-03-01T10:49:12;8.47;;;7.20;;
16928;SDS011;8581;47.334;11.190;2023-03-01T10:51:44;9.83;;;7.40;;
16928;SDS011;8581;47.334;11.190;2023-03-01T10:54:16;7.47;;;6.50;;
16928;SDS011;8581;47.334;11.190;2023-03-01T10:56:51;7.23;;;6.53;;
16928;SDS011;8581;47.334;11.190;2023-03-01T10:59:27;9.63;;;7.27;;
16928;SDS011;8581;47.334;11.190;2023-03-01T11:02:11;8.33;;;7.37;;
16928;SDS011;8581;47.334;11.190;2023-03-01T11:04:35;11.37;;;6.90;;
16928;SDS011;8581;47.334;11.190;2023-03-01T11:07:07;7.90;;;6.87;;
16928;SDS011;8581;47.334;11.190;2023-03-01T11:09:38;8.23;;;7.43;;
16928;SDS011;8581;47.334;11.190;2023-03-01T11:12:13;8.00;;;7.23;;
16928;SDS011;8581;47.334;11.190;2023-03-01T11:14:48;7.83;;;7.00;;
16928;SDS011;8581;47.334;11.190;2023-03-01T11:17:24;8.60;;;7.80;;
16928;SDS011;8581;47.334;11.190;2023-03-01T11:20:05;8.17;;;7.43;;
16928;SDS011;8581;47.334;11.190;2023-03-01T11:22:34;8.85;;;7.20;;
16928;SDS011;8581;47.334;11.190;2023-03-01T11:25:07;9.50;;;7.85;;
16928;SDS011;8581;47.334;11.190;2023-03-01T11:27:40;8.20;;;7.37;;
16928;SDS011;8581;47.334;11.190;2023-03-01T11:30:16;8.43;;;7.62;;
16928;SDS011;8581;47.334;11.190;2023-03-01T11:32:51;7.70;;;6.87;;
16928;SDS011;8581;47.334;11.190;2023-03-01T11:35:34;15.58;;;8.35;;
16928;SDS011;8581;47.334;11.190;2023-03-01T11:38:22;8.33;;;7.55;;
16928;SDS011;8581;47.334;11.190;2023-03-01T11:43:49;7.70;;;7.10;;
16928;SDS011;8581;47.334;11.190;2023-03-01T11:46:42;7.20;;;6.65;;
16928;SDS011;8581;47.334;11.190;2023-03-01T11:49:41;7.05;;;6.08;;
16928;SDS011;8581;47.334;11.190;2023-03-01T11:52:17;7.87;;;7.17;;
16928;SDS011;8581;47.334;11.190;2023-03-01T11:57:53;7.85;;;7.25;;
16928;SDS011;8581;47.334;11.190;2023-03-01T12:00:24;7.70;;;7.00;;
16928;SDS011;8581;47.334;11.190;2023-03-01T12:03:00;6.97;;;6.47;;
16928;SDS011;8581;47.334;11.190;2023-03-01T12:05:40;8.40;;;7.55;;
16928;SDS011;8581;47.334;11.190;2023-03-01T12:08:14;7.33;;;6.83;;
16928;SDS011;8581;47.334;11.190;2023-03-01T12:14:04;6.90;;;6.40;;
16928;SDS011;8581;47.334;11.190;2023-03-01T12:19:30;12.40;;;6.80;;
16928;SDS011;8581;47.334;11.190;2023-03-01T12:22:35;8.08;;;5.97;;
16928;SDS011;8581;47.334;11.190;2023-03-01T12:25:00;5.97;;;5.47;;
16928;SDS011;8581;47.334;11.190;2023-03-01T12:27:37;6.55;;;5.95;;
16928;SDS011;8581;47.334;11.190;2023-03-01T12:30:19;6.22;;;5.70;;
16928;SDS011;8581;47.334;11.190;2023-03-01T12:32:59;6.67;;;6.17;;
16928;SDS011;8581;47.334;11.190;2023-03-01T12:38:32;6.62;;;6.12;;
16928;SDS011;8581;47.334;11.190;2023-03-01T12:41:21;6.85;;;6.15;;
16928;SDS011;8581;47.334;11.190;2023-03-01T12:44:12;7.10;;;6.50;;
16928;SDS011;8581;47.334;11.190;2023-03-01T12:47:05;16.77;;;7.92;;
16928;SDS011;8581;47.334;11.190;2023-03-01T12:52:41;8.30;;;7.12;;
16928;SDS011;8581;47.334;11.190;2023-03-01T13:01:03;8.08;;;7.45;;
16928;SDS011;8581;47.334;11.190;2023-03-01T13:03:43;8.43;;;7.72;;
16928;SDS011;8581;47.334;11.190;2023-03-01T13:06:36;11.73;;;8.05;;
16928;SDS011;8581;47.334;11.190;2023-03-01T13:09:49;8.53;;;7.58;;
16928;SDS011;8581;47.334;11.190;2023-03-01T13:15:27;15.25;;;8.70;;
16928;SDS011;8581;47.334;11.190;2023-03-01T13:17:59;8.28;;;7.42;;
16928;SDS011;8581;47.334;11.190;2023-03-01T13:26:07;8.73;;;7.83;;
16928;SDS011;8581;47.334;11.190;2023-03-01T13:28:40;8.28;;;7.53;;
16928;SDS011;8581;47.334;11.190;2023-03-01T13:34:49;8.63;;;7.72;;
16928;SDS011;8581;47.334;11.190;2023-03-01T13:37:10;9.90;;;8.73;;
16928;SDS011;8581;47.334;11.190;2023-03-01T13:39:41;13.28;;;9.03;;
16928;SDS011;8581;47.334;11.190;2023-03-01T13:44:55;9.55;;;8.55;;
16928;SDS011;8581;47.334;11.190;2023-03-01T13:47:27;9.08;;;8.20;;
16928;SDS011;8581;47.334;11.190;2023-03-01T13:49:59;9.20;;;8.40;;
16928;SDS011;8581;47.334;11.190;2023-03-01T13:55:24;9.03;;;7.85;;
16928;SDS011;8581;47.334;11.190;2023-03-01T13:57:55;7.55;;;6.87;;
16928;SDS011;8581;47.334;11.190;2023-03-01T14:00:29;8.53;;;7.62;;
16928;SDS011;8581;47.334;11.190;2023-03-01T14:03:05;8.15;;;7.37;;
16928;SDS011;8581;47.334;11.190;2023-03-01T14:05:36;10.08;;;8.03;;
16928;SDS011;8581;47.334;11.190;2023-03-01T14:08:28;8.05;;;7.45;;
16928;SDS011;8581;47.334;11.190;2023-03-01T14:11:20;8.20;;;7.47;;
16928;SDS011;8581;47.334;11.190;2023-03-01T14:16:50;9.30;;;8.40;;
16928;SDS011;8581;47.334;11.190;2023-03-01T14:19:38;10.10;;;7.85;;
16928;SDS011;8581;47.334;11.190;2023-03-01T14:22:13;11.55;;;8.00;;
16928;SDS011;8581;47.334;11.190;2023-03-01T14:24:47;9.80;;;8.80;;
16928;SDS011;8581;47.334;11.190;2023-03-01T14:27:18;8.73;;;7.90;;
16928;SDS011;8581;47.334;11.190;2023-03-01T14:29:55;9.03;;;8.15;;
16928;SDS011;8581;47.334;11.190;2023-03-01T14:32:26;9.18;;;8.28;;
16928;SDS011;8581;47.334;11.190;2023-03-01T14:34:57;8.55;;;7.85;;
16928;SDS011;8581;47.334;11.190;2023-03-01T14:37:31;9.25;;;8.33;;
16928;SDS011;8581;47.334;11.190;2023-03-01T14:40:03;10.20;;;8.78;;
16928;SDS011;8581;47.334;11.190;2023-03-01T14:42:35;9.45;;;8.65;;
16928;SDS011;8581;47.334;11.190;2023-03-01T14:45:07;8.68;;;7.87;;
16928;SDS011;8581;47.334;11.190;2023-03-01T14:47:39;8.85;;;7.55;;
16928;SDS011;8581;47.334;11.190;2023-03-01T14:50:18;8.85;;;8.25;;
16928;SDS011;8581;47.334;11.190;2023-03-01T14:52:47;6.78;;;5.15;;
16928;SDS011;8581;47.334;11.190;2023-03-01T14:55:20;7.30;;;6.62;;
16928;SDS011;8581;47.334;11.190;2023-03-01T14:57:50;8.55;;;7.78;;
16928;SDS011;8581;47.334;11.190;2023-03-01T15:00:23;5.00;;;4.60;;
16928;SDS011;8581;47.334;11.190;2023-03-01T15:02:55;8.20;;;7.50;;
16928;SDS011;8581;47.334;11.190;2023-03-01T15:05:27;10.45;;;9.50;;
16928;SDS011;8581;47.334;11.190;2023-03-01T15:08:00;11.38;;;9.58;;
16928;SDS011;8581;47.334;11.190;2023-03-01T15:10:33;11.20;;;10.30;;
16928;SDS011;8581;47.334;11.190;2023-03-01T15:13:10;10.45;;;9.48;;
16928;SDS011;8581;47.334;11.190;2023-03-01T15:15:42;7.92;;;7.33;;
16928;SDS011;8581;47.334;11.190;2023-03-01T15:18:20;4.92;;;4.55;;
16928;SDS011;8581;47.334;11.190;2023-03-01T15:20:52;4.33;;;4.03;;
16928;SDS011;8581;47.334;11.190;2023-03-01T15:23:25;4.60;;;4.20;;
16928;SDS011;8581;47.334;11.190;2023-03-01T15:25:56;4.62;;;4.30;;
16928;SDS011;8581;47.334;11.190;2023-03-01T15:28:28;5.20;;;4.70;;
16928;SDS011;8581;47.334;11.190;2023-03-01T15:31:05;6.05;;;4.30;;
16928;SDS011;8581;47.334;11.190;2023-03-01T15:33:37;5.12;;;4.47;;
16928;SDS011;8581;47.334;11.190;2023-03-01T15:38:52;4.37;;;4.08;;
16928;SDS011;8581;47.334;11.190;2023-03-01T15:41:27;4.67;;;4.30;;
16928;SDS011;8581;47.334;11.190;2023-03-01T15:43:58;4.80;;;4.40;;
16928;SDS011;8581;47.334;11.190;2023-03-01T15:46:32;4.05;;;3.75;;
16928;SDS011;8581;47.334;11.190;2023-03-01T15:49:04;5.37;;;4.97;;
16928;SDS011;8581;47.334;11.190;2023-03-01T15:51:36;5.55;;;5.08;;
16928;SDS011;8581;47.334;11.190;2023-03-01T15:54:12;5.42;;;5.00;;
16928;SDS011;8581;47.334;11.190;2023-03-01T15:56:43;5.80;;;5.30;;
16928;SDS011;8581;47.334;11.190;2023-03-01T15:59:15;6.35;;;5.17;;
16928;SDS011;8581;47.334;11.190;2023-03-01T16:01:47;5.37;;;4.97;;
16928;SDS011;8581;47.334;11.190;2023-03-01T16:04:18;5.30;;;4.80;;
16928;SDS011;8581;47.334;11.190;2023-03-01T16:06:53;5.43;;;5.03;;
16928;SDS011;8581;47.334;11.190;2023-03-01T16:09:25;6.07;;;5.57;;